sensor_id;sensor_type;location;lat;lon;timestamp;P1;durP1;ratioP1;P2;durP2;ratioP2
18399;SDS011;9326;49.468;11.008;2024-01-11T06:04:14;37.23;;;23.33;;
18399;SDS011;9326;49.468;11.008;2024-01-11T06:06:52;38.70;;;24.00;;
18399;SDS011;9326;49.468;11.008;2024-01-11T06:09:27;39.10;;;23.20;;
18399;SDS011;9326;49.468;11.008;2024-01-11T06:12:19;37.43;;;23.80;;
18399;SDS011;9326;49.468;11.008;2024-01-11T06:14:59;35.20;;;23.33;;
18399;SDS011;9326;49.468;11.008;2024-01-11T06:17:45;38.37;;;23.93;;
18399;SDS011;9326;49.468;11.008;2024-01-11T06:23:24;38.17;;;22.97;;
18399;SDS011;9326;49.468;11.008;2024-01-11T06:26:27;38.07;;;23.77;;
18399;SDS011;9326;49.468;11.008;2024-01-11T06:28:58;40.77;;;23.20;;
18399;SDS011;9326;49.468;11.008;2024-01-11T06:31:27;36.93;;;22.37;;
18399;SDS011;9326;49.468;11.008;2024-01-11T06:33:55;37.60;;;24.63;;
18399;SDS011;9326;49.468;11.008;2024-01-11T06:36:22;39.40;;;23.47;;
18399;SDS011;9326;49.468;11.008;2024-01-11T06:38:50;40.53;;;23.97;;
18399;SDS011;9326;49.468;11.008;2024-01-11T06:41:17;37.50;;;24.17;;
18399;SDS011;9326;49.468;11.008;2024-01-11T06:43:47;42.33;;;24.87;;
18399;SDS011;9326;49.468;11.008;2024-01-11T06:46:23;44.37;;;26.13;;
18399;SDS011;9326;49.468;11.008;2024-01-11T06:49:13;42.60;;;25.63;;
18399;SDS011;9326;49.468;11.008;2024-01-11T06:51:46;43.33;;;26.33;;
18399;SDS011;9326;49.468;11.008;2024-01-11T06:54:22;37.60;;;24.30;;
18399;SDS011;9326;49.468;11.008;2024-01-11T06:57:02;38.53;;;23.13;;
18399;SDS011;9326;49.468;11.008;2024-01-11T06:59:43;37.30;;;23.37;;
18399;SDS011;9326;49.468;11.008;2024-01-11T07:05:35;38.17;;;22.80;;
18399;SDS011;9326;49.468;11.008;2024-01-11T07:08:14;38.33;;;23.43;;
18399;SDS011;9326;49.468;11.008;2024-01-11T07:10:43;38.30;;;23.50;;
18399;SDS011;9326;49.468;11.008;2024-01-11T07:13:11;39.13;;;23.27;;
18399;SDS011;9326;49.468;11.008;2024-01-11T07:15:41;41.77;;;24.37;;
18399;SDS011;9326;49.468;11.008;2024-01-11T07:18:09;36.87;;;22.90;;
18399;SDS011;9326;49.468;11.008;2024-01-11T07:20:36;38.20;;;23.33;;
18399;SDS011;9326;49.468;11.008;2024-01-11T07:23:04;37.70;;;22.83;;
18399;SDS011;9326;49.468;11.008;2024-01-11T07:25:31;37.67;;;23.50;;
18399;SDS011;9326;49.468;11.008;2024-01-11T07:28:02;39.00;;;24.37;;
18399;SDS011;9326;49.468;11.008;2024-01-11T07:30:29;75.63;;;46.90;;
18399;SDS011;9326;49.468;11.008;2024-01-11T07:32:57;64.97;;;37.47;;
18399;SDS011;9326;49.468;11.008;2024-01-11T07:35:24;39.07;;;24.57;;
18399;SDS011;9326;49.468;11.008;2024-01-11T07:37:54;39.40;;;24.00;;
18399;SDS011;9326;49.468;11.008;2024-01-11T07:48:27;39.23;;;23.83;;
18399;SDS011;9326;49.468;11.008;2024-01-11T07:50:54;37.70;;;23.20;;
18399;SDS011;9326;49.468;11.008;2024-01-11T07:53:21;38.03;;;23.57;;
18399;SDS011;9326;49.468;11.008;2024-01-11T07:55:49;32.70;;;22.97;;
18399;SDS011;9326;49.468;11.008;2024-01-11T07:58:17;34.37;;;21.70;;
18399;SDS011;9326;49.468;11.008;2024-01-11T08:00:45;38.10;;;22.67;;
18399;SDS011;9326;49.468;11.008;2024-01-11T08:03:13;36.07;;;23.27;;
18399;SDS011;9326;49.468;11.008;2024-01-11T08:05:46;39.33;;;22.50;;
18399;SDS011;9326;49.468;11.008;2024-01-11T08:08:15;35.73;;;22.80;;
18399;SDS011;9326;49.468;11.008;2024-01-11T08:10:42;39.23;;;22.73;;
18399;SDS011;9326;49.468;11.008;2024-01-11T08:13:10;37.93;;;23.47;;
18399;SDS011;9326;49.468;11.008;2024-01-11T08:15:46;37.60;;;23.80;;
18399;SDS011;9326;49.468;11.008;2024-01-11T08:18:13;36.27;;;22.73;;
18399;SDS011;9326;49.468;11.008;2024-01-11T08:20:40;39.13;;;22.57;;
18399;SDS011;9326;49.468;11.008;2024-01-11T08:23:09;36.07;;;22.80;;
18399;SDS011;9326;49.468;11.008;2024-01-11T08:25:36;39.33;;;23.90;;
18399;SDS011;9326;49.468;11.008;2024-01-11T08:28:04;39.07;;;23.50;;
18399;SDS011;9326;49.468;11.008;2024-01-11T08:30:32;39.87;;;23.93;;
18399;SDS011;9326;49.468;11.008;2024-01-11T08:33:00;37.27;;;23.07;;
18399;SDS011;9326;49.468;11.008;2024-01-11T08:35:29;39.47;;;23.90;;
18399;SDS011;9326;49.468;11.008;2024-01-11T08:37:57;36.30;;;22.97;;
18399;SDS011;9326;49.468;11.008;2024-01-11T08:40:26;36.57;;;23.40;;
18399;SDS011;9326;49.468;11.008;2024-01-11T08:42:53;37.47;;;23.07;;
18399;SDS011;9326;49.468;11.008;2024-01-11T08:45:20;41.70;;;26.00;;
18399;SDS011;9326;49.468;11.008;2024-01-11T08:47:48;48.03;;;27.40;;
18399;SDS011;9326;49.468;11.008;2024-01-11T08:50:16;40.27;;;24.57;;
18399;SDS011;9326;49.468;11.008;2024-01-11T08:52:45;43.17;;;26.20;;
18399;SDS011;9326;49.468;11.008;2024-01-11T08:55:12;37.43;;;24.10;;
18399;SDS011;9326;49.468;11.008;2024-01-11T08:57:41;39.80;;;24.43;;
18399;SDS011;9326;49.468;11.008;2024-01-11T09:00:09;35.13;;;23.33;;
18399;SDS011;9326;49.468;11.008;2024-01-11T09:02:36;37.97;;;23.53;;
18399;SDS011;9326;49.468;11.008;2024-01-11T09:05:04;35.43;;;23.33;;
18399;SDS011;9326;49.468;11.008;2024-01-11T09:07:32;38.67;;;23.90;;
18399;SDS011;9326;49.468;11.008;2024-01-11T09:09:59;35.27;;;22.10;;
18399;SDS011;9326;49.468;11.008;2024-01-11T09:12:26;36.67;;;22.83;;
18399;SDS011;9326;49.468;11.008;2024-01-11T09:15:04;36.77;;;23.13;;
18399;SDS011;9326;49.468;11.008;2024-01-11T09:17:35;35.07;;;21.87;;
18399;SDS011;9326;49.468;11.008;2024-01-11T09:20:04;34.97;;;22.47;;
18399;SDS011;9326;49.468;11.008;2024-01-11T09:22:31;34.50;;;22.17;;
18399;SDS011;9326;49.468;11.008;2024-01-11T09:24:58;39.30;;;22.20;;
18399;SDS011;9326;49.468;11.008;2024-01-11T09:27:26;35.93;;;22.60;;
18399;SDS011;9326;49.468;11.008;2024-01-11T09:29:55;32.90;;;21.63;;
18399;SDS011;9326;49.468;11.008;2024-01-11T09:32:22;36.60;;;22.20;;
18399;SDS011;9326;49.468;11.008;2024-01-11T09:34:50;35.87;;;22.83;;
18399;SDS011;9326;49.468;11.008;2024-01-11T09:37:19;35.33;;;22.67;;
18399;SDS011;9326;49.468;11.008;2024-01-11T09:39:47;38.17;;;21.17;;
18399;SDS011;9326;49.468;11.008;2024-01-11T09:42:14;34.53;;;21.57;;
18399;SDS011;9326;49.468;11.008;2024-01-11T09:44:43;31.80;;;20.53;;
18399;SDS011;9326;49.468;11.008;2024-01-11T09:47:12;34.20;;;21.30;;
18399;SDS011;9326;49.468;11.008;2024-01-11T09:49:42;34.17;;;22.10;;
18399;SDS011;9326;49.468;11.008;2024-01-11T09:52:10;34.50;;;20.87;;
18399;SDS011;9326;49.468;11.008;2024-01-11T09:54:39;38.90;;;23.07;;
18399;SDS011;9326;49.468;11.008;2024-01-11T09:57:07;36.47;;;21.13;;
18399;SDS011;9326;49.468;11.008;2024-01-11T09:59:36;35.70;;;21.97;;
18399;SDS011;9326;49.468;11.008;2024-01-11T10:02:03;32.30;;;20.30;;
18399;SDS011;9326;49.468;11.008;2024-01-11T10:04:45;35.27;;;22.07;;
18399;SDS011;9326;49.468;11.008;2024-01-11T10:07:21;33.07;;;21.27;;
18399;SDS011;9326;49.468;11.008;2024-01-11T10:09:49;33.27;;;20.57;;
18399;SDS011;9326;49.468;11.008;2024-01-11T10:12:17;33.23;;;21.77;;
18399;SDS011;9326;49.468;11.008;2024-01-11T10:14:48;36.70;;;21.70;;
18399;SDS011;9326;49.468;11.008;2024-01-11T10:17:17;31.57;;;20.67;;
18399;SDS011;9326;49.468;11.008;2024-01-11T10:19:52;33.67;;;21.57;;
18399;SDS011;9326;49.468;11.008;2024-01-11T10:22:20;34.13;;;20.80;;
18399;SDS011;9326;49.468;11.008;2024-01-11T10:24:48;35.03;;;21.60;;
18399;SDS011;9326;49.468;11.008;2024-01-11T10:30:13;33.07;;;20.40;;
18399;SDS011;9326;49.468;11.008;2024-01-11T10:32:41;33.17;;;20.43;;
18399;SDS011;9326;49.468;11.008;2024-01-11T10:35:10;29.17;;;19.40;;
18399;SDS011;9326;49.468;11.008;2024-01-11T10:37:37;31.10;;;18.53;;
18399;SDS011;9326;49.468;11.008;2024-01-11T10:40:07;35.60;;;21.00;;
18399;SDS011;9326;49.468;11.008;2024-01-11T10:42:39;32.03;;;20.53;;
18399;SDS011;9326;49.468;11.008;2024-01-11T10:45:07;32.73;;;19.80;;
18399;SDS011;9326;49.468;11.008;2024-01-11T10:47:37;32.73;;;19.97;;
18399;SDS011;9326;49.468;11.008;2024-01-11T10:50:06;31.80;;;20.17;;
18399;SDS011;9326;49.468;11.008;2024-01-11T10:52:40;34.17;;;20.67;;
18399;SDS011;9326;49.468;11.008;2024-01-11T10:55:09;28.07;;;19.23;;
18399;SDS011;9326;49.468;11.008;2024-01-11T10:57:37;31.53;;;19.43;;
18399;SDS011;9326;49.468;11.008;2024-01-11T11:00:05;28.13;;;19.47;;
18399;SDS011;9326;49.468;11.008;2024-01-11T11:02:36;33.53;;;19.47;;
18399;SDS011;9326;49.468;11.008;2024-01-11T11:05:04;32.17;;;20.50;;
18399;SDS011;9326;49.468;11.008;2024-01-11T11:07:34;30.60;;;19.67;;
18399;SDS011;9326;49.468;11.008;2024-01-11T11:10:11;32.37;;;19.87;;
18399;SDS011;9326;49.468;11.008;2024-01-11T11:12:39;30.40;;;19.67;;
18399;SDS011;9326;49.468;11.008;2024-01-11T11:15:08;30.97;;;20.43;;
18399;SDS011;9326;49.468;11.008;2024-01-11T11:17:36;29.33;;;19.77;;
18399;SDS011;9326;49.468;11.008;2024-01-11T11:20:04;32.60;;;20.07;;
18399;SDS011;9326;49.468;11.008;2024-01-11T11:22:33;33.73;;;21.17;;
18399;SDS011;9326;49.468;11.008;2024-01-11T11:25:06;34.57;;;19.30;;
18399;SDS011;9326;49.468;11.008;2024-01-11T11:27:41;36.93;;;19.53;;
18399;SDS011;9326;49.468;11.008;2024-01-11T11:30:09;29.03;;;18.50;;
18399;SDS011;9326;49.468;11.008;2024-01-11T11:32:42;25.73;;;15.90;;
18399;SDS011;9326;49.468;11.008;2024-01-11T11:35:10;31.20;;;15.63;;
18399;SDS011;9326;49.468;11.008;2024-01-11T11:37:38;25.57;;;14.37;;
18399;SDS011;9326;49.468;11.008;2024-01-11T11:40:08;26.87;;;15.50;;
18399;SDS011;9326;49.468;11.008;2024-01-11T11:42:38;24.50;;;15.47;;
18399;SDS011;9326;49.468;11.008;2024-01-11T11:45:07;24.77;;;15.03;;
18399;SDS011;9326;49.468;11.008;2024-01-11T11:47:36;23.97;;;14.03;;
18399;SDS011;9326;49.468;11.008;2024-01-11T11:50:05;25.20;;;14.57;;
18399;SDS011;9326;49.468;11.008;2024-01-11T11:52:32;22.97;;;13.00;;
18399;SDS011;9326;49.468;11.008;2024-01-11T11:55:00;25.63;;;15.03;;
18399;SDS011;9326;49.468;11.008;2024-01-11T12:00:18;25.77;;;16.50;;
18399;SDS011;9326;49.468;11.008;2024-01-11T12:02:48;28.90;;;17.17;;
18399;SDS011;9326;49.468;11.008;2024-01-11T12:05:17;24.87;;;14.13;;
18399;SDS011;9326;49.468;11.008;2024-01-11T12:07:44;24.77;;;12.33;;
18399;SDS011;9326;49.468;11.008;2024-01-11T12:10:12;22.80;;;13.27;;
18399;SDS011;9326;49.468;11.008;2024-01-11T12:12:39;28.60;;;14.90;;
18399;SDS011;9326;49.468;11.008;2024-01-11T12:15:07;25.63;;;15.97;;
18399;SDS011;9326;49.468;11.008;2024-01-11T12:17:36;24.97;;;13.77;;
18399;SDS011;9326;49.468;11.008;2024-01-11T12:20:07;23.20;;;12.60;;
18399;SDS011;9326;49.468;11.008;2024-01-11T12:22:35;25.80;;;12.70;;
18399;SDS011;9326;49.468;11.008;2024-01-11T12:25:06;26.63;;;13.97;;
18399;SDS011;9326;49.468;11.008;2024-01-11T12:27:34;25.80;;;14.93;;
18399;SDS011;9326;49.468;11.008;2024-01-11T12:30:01;22.00;;;13.27;;
18399;SDS011;9326;49.468;11.008;2024-01-11T12:32:28;22.23;;;12.93;;
18399;SDS011;9326;49.468;11.008;2024-01-11T12:34:57;23.77;;;12.93;;
18399;SDS011;9326;49.468;11.008;2024-01-11T12:37:27;21.07;;;12.63;;
18399;SDS011;9326;49.468;11.008;2024-01-11T12:39:57;22.40;;;12.67;;
18399;SDS011;9326;49.468;11.008;2024-01-11T12:42:25;24.57;;;12.03;;
18399;SDS011;9326;49.468;11.008;2024-01-11T12:44:52;23.97;;;12.47;;
18399;SDS011;9326;49.468;11.008;2024-01-11T12:47:20;20.53;;;11.30;;
18399;SDS011;9326;49.468;11.008;2024-01-11T12:49:48;25.07;;;12.83;;
18399;SDS011;9326;49.468;11.008;2024-01-11T12:52:18;23.50;;;11.43;;
18399;SDS011;9326;49.468;11.008;2024-01-11T12:54:46;24.27;;;13.57;;
18399;SDS011;9326;49.468;11.008;2024-01-11T12:57:12;19.90;;;12.20;;
18399;SDS011;9326;49.468;11.008;2024-01-11T12:59:40;21.53;;;12.33;;
18399;SDS011;9326;49.468;11.008;2024-01-11T13:02:07;17.83;;;11.27;;
18399;SDS011;9326;49.468;11.008;2024-01-11T13:04:37;21.93;;;11.90;;
18399;SDS011;9326;49.468;11.008;2024-01-11T13:07:04;22.10;;;12.57;;
18399;SDS011;9326;49.468;11.008;2024-01-11T13:09:34;21.60;;;12.50;;
18399;SDS011;9326;49.468;11.008;2024-01-11T13:12:01;20.47;;;11.57;;
18399;SDS011;9326;49.468;11.008;2024-01-11T13:14:29;20.37;;;12.00;;
18399;SDS011;9326;49.468;11.008;2024-01-11T13:16:56;19.10;;;11.70;;
18399;SDS011;9326;49.468;11.008;2024-01-11T13:19:23;19.37;;;11.57;;
18399;SDS011;9326;49.468;11.008;2024-01-11T13:21:52;22.13;;;12.33;;
18399;SDS011;9326;49.468;11.008;2024-01-11T13:24:19;20.37;;;10.83;;
18399;SDS011;9326;49.468;11.008;2024-01-11T13:26:48;19.57;;;10.93;;
18399;SDS011;9326;49.468;11.008;2024-01-11T13:29:16;18.40;;;10.87;;
18399;SDS011;9326;49.468;11.008;2024-01-11T13:31:44;20.63;;;11.40;;
18399;SDS011;9326;49.468;11.008;2024-01-11T13:34:11;19.90;;;11.00;;
18399;SDS011;9326;49.468;11.008;2024-01-11T13:36:38;22.23;;;11.63;;
18399;SDS011;9326;49.468;11.008;2024-01-11T13:39:05;19.80;;;11.63;;
18399;SDS011;9326;49.468;11.008;2024-01-11T13:41:34;18.53;;;9.67;;
18399;SDS011;9326;49.468;11.008;2024-01-11T13:44:03;19.37;;;10.70;;
18399;SDS011;9326;49.468;11.008;2024-01-11T13:46:32;18.40;;;11.87;;
18399;SDS011;9326;49.468;11.008;2024-01-11T13:48:59;20.43;;;11.97;;
18399;SDS011;9326;49.468;11.008;2024-01-11T13:51:28;17.70;;;10.73;;
18399;SDS011;9326;49.468;11.008;2024-01-11T13:53:57;22.27;;;11.27;;
18399;SDS011;9326;49.468;11.008;2024-01-11T13:56:25;20.07;;;10.30;;
18399;SDS011;9326;49.468;11.008;2024-01-11T13:58:52;18.47;;;10.20;;
18399;SDS011;9326;49.468;11.008;2024-01-11T14:01:24;17.07;;;10.50;;
18399;SDS011;9326;49.468;11.008;2024-01-11T14:03:51;17.93;;;10.90;;
18399;SDS011;9326;49.468;11.008;2024-01-11T14:06:18;20.00;;;11.00;;
18399;SDS011;9326;49.468;11.008;2024-01-11T14:08:46;19.10;;;10.73;;
18399;SDS011;9326;49.468;11.008;2024-01-11T14:11:13;18.40;;;11.17;;
18399;SDS011;9326;49.468;11.008;2024-01-11T14:13:41;16.90;;;11.07;;
18399;SDS011;9326;49.468;11.008;2024-01-11T14:16:08;17.77;;;10.63;;
18399;SDS011;9326;49.468;11.008;2024-01-11T14:18:38;20.00;;;10.77;;
18399;SDS011;9326;49.468;11.008;2024-01-11T14:21:05;21.20;;;11.40;;
18399;SDS011;9326;49.468;11.008;2024-01-11T14:23:33;14.67;;;8.17;;
18399;SDS011;9326;49.468;11.008;2024-01-11T14:26:00;19.00;;;11.10;;
18399;SDS011;9326;49.468;11.008;2024-01-11T14:28:28;18.10;;;11.23;;
18399;SDS011;9326;49.468;11.008;2024-01-11T14:30:56;17.43;;;9.87;;
18399;SDS011;9326;49.468;11.008;2024-01-11T14:33:23;16.00;;;8.60;;
18399;SDS011;9326;49.468;11.008;2024-01-11T14:35:52;17.73;;;10.43;;
18399;SDS011;9326;49.468;11.008;2024-01-11T14:38:20;21.77;;;10.37;;
18399;SDS011;9326;49.468;11.008;2024-01-11T14:40:48;30.07;;;16.27;;
18399;SDS011;9326;49.468;11.008;2024-01-11T14:43:20;19.20;;;9.53;;
18399;SDS011;9326;49.468;11.008;2024-01-11T14:45:48;17.03;;;9.57;;
18399;SDS011;9326;49.468;11.008;2024-01-11T14:48:16;18.70;;;10.40;;
18399;SDS011;9326;49.468;11.008;2024-01-11T14:50:45;17.57;;;10.67;;
18399;SDS011;9326;49.468;11.008;2024-01-11T14:53:15;18.27;;;10.60;;
18399;SDS011;9326;49.468;11.008;2024-01-11T14:55:43;18.70;;;9.83;;
18399;SDS011;9326;49.468;11.008;2024-01-11T14:58:11;18.03;;;11.37;;
18399;SDS011;9326;49.468;11.008;2024-01-11T15:00:38;18.33;;;11.47;;
18399;SDS011;9326;49.468;11.008;2024-01-11T15:03:05;20.20;;;11.17;;
18399;SDS011;9326;49.468;11.008;2024-01-11T15:05:33;18.07;;;10.03;;
18399;SDS011;9326;49.468;11.008;2024-01-11T15:08:01;18.80;;;11.20;;
18399;SDS011;9326;49.468;11.008;2024-01-11T15:10:30;19.23;;;10.83;;
18399;SDS011;9326;49.468;11.008;2024-01-11T15:12:57;20.30;;;11.20;;
18399;SDS011;9326;49.468;11.008;2024-01-11T15:15:26;18.23;;;10.77;;
18399;SDS011;9326;49.468;11.008;2024-01-11T15:17:54;18.47;;;11.80;;
18399;SDS011;9326;49.468;11.008;2024-01-11T15:20:21;18.73;;;11.10;;
18399;SDS011;9326;49.468;11.008;2024-01-11T15:22:50;18.53;;;11.10;;
18399;SDS011;9326;49.468;11.008;2024-01-11T15:25:17;21.00;;;10.57;;
18399;SDS011;9326;49.468;11.008;2024-01-11T15:27:46;17.97;;;11.33;;
18399;SDS011;9326;49.468;11.008;2024-01-11T15:30:14;18.70;;;10.67;;
18399;SDS011;9326;49.468;11.008;2024-01-11T15:32:43;18.80;;;10.90;;
18399;SDS011;9326;49.468;11.008;2024-01-11T15:35:11;22.87;;;13.07;;
18399;SDS011;9326;49.468;11.008;2024-01-11T15:37:43;18.37;;;10.83;;
18399;SDS011;9326;49.468;11.008;2024-01-11T15:40:20;23.23;;;11.17;;
18399;SDS011;9326;49.468;11.008;2024-01-11T15:42:49;18.37;;;11.77;;
18399;SDS011;9326;49.468;11.008;2024-01-11T15:45:16;18.20;;;10.90;;
18399;SDS011;9326;49.468;11.008;2024-01-11T15:47:52;19.80;;;11.67;;
18399;SDS011;9326;49.468;11.008;2024-01-11T15:50:21;19.33;;;11.17;;
18399;SDS011;9326;49.468;11.008;2024-01-11T15:52:48;20.37;;;10.87;;
18399;SDS011;9326;49.468;11.008;2024-01-11T15:55:16;18.20;;;11.37;;
18399;SDS011;9326;49.468;11.008;2024-01-11T15:57:45;20.70;;;11.87;;
18399;SDS011;9326;49.468;11.008;2024-01-11T16:00:15;22.97;;;11.77;;
18399;SDS011;9326;49.468;11.008;2024-01-11T16:02:45;37.97;;;23.43;;
18399;SDS011;9326;49.468;11.008;2024-01-11T16:05:13;35.00;;;22.57;;
18399;SDS011;9326;49.468;11.008;2024-01-11T16:07:40;61.97;;;33.40;;
18399;SDS011;9326;49.468;11.008;2024-01-11T16:10:09;115.03;;;55.53;;
18399;SDS011;9326;49.468;11.008;2024-01-11T16:12:36;30.30;;;17.90;;
18399;SDS011;9326;49.468;11.008;2024-01-11T16:15:05;24.20;;;13.00;;
18399;SDS011;9326;49.468;11.008;2024-01-11T16:17:34;23.73;;;12.67;;
18399;SDS011;9326;49.468;11.008;2024-01-11T16:20:01;26.03;;;15.13;;
18399;SDS011;9326;49.468;11.008;2024-01-11T16:22:34;33.77;;;20.13;;
18399;SDS011;9326;49.468;11.008;2024-01-11T16:25:02;24.40;;;13.27;;
18399;SDS011;9326;49.468;11.008;2024-01-11T16:27:32;23.60;;;13.40;;
18399;SDS011;9326;49.468;11.008;2024-01-11T16:30:00;23.73;;;12.80;;
18399;SDS011;9326;49.468;11.008;2024-01-11T16:32:39;29.27;;;14.90;;
18399;SDS011;9326;49.468;11.008;2024-01-11T16:35:08;23.07;;;13.17;;
18399;SDS011;9326;49.468;11.008;2024-01-11T16:37:36;21.20;;;11.77;;
18399;SDS011;9326;49.468;11.008;2024-01-11T16:40:04;20.70;;;11.93;;
18399;SDS011;9326;49.468;11.008;2024-01-11T16:42:36;21.63;;;12.60;;
18399;SDS011;9326;49.468;11.008;2024-01-11T16:45:03;23.23;;;12.17;;
18399;SDS011;9326;49.468;11.008;2024-01-11T16:47:33;19.40;;;12.23;;
18399;SDS011;9326;49.468;11.008;2024-01-11T16:50:05;20.63;;;12.97;;
18399;SDS011;9326;49.468;11.008;2024-01-11T16:52:34;22.70;;;13.40;;
18399;SDS011;9326;49.468;11.008;2024-01-11T16:55:03;18.87;;;11.83;;
18399;SDS011;9326;49.468;11.008;2024-01-11T16:57:30;18.67;;;11.63;;
18399;SDS011;9326;49.468;11.008;2024-01-11T17:00:02;19.93;;;12.27;;
18399;SDS011;9326;49.468;11.008;2024-01-11T17:02:30;22.20;;;13.63;;
18399;SDS011;9326;49.468;11.008;2024-01-11T17:04:58;27.73;;;13.17;;
18399;SDS011;9326;49.468;11.008;2024-01-11T17:07:27;24.97;;;13.93;;
18399;SDS011;9326;49.468;11.008;2024-01-11T17:09:56;32.47;;;18.00;;
18399;SDS011;9326;49.468;11.008;2024-01-11T17:12:23;27.20;;;15.47;;
18399;SDS011;9326;49.468;11.008;2024-01-11T17:14:51;35.50;;;18.57;;
18399;SDS011;9326;49.468;11.008;2024-01-11T17:17:21;30.90;;;16.93;;
18399;SDS011;9326;49.468;11.008;2024-01-11T17:19:52;24.73;;;14.17;;
18399;SDS011;9326;49.468;11.008;2024-01-11T17:22:20;25.20;;;13.83;;
18399;SDS011;9326;49.468;11.008;2024-01-11T17:24:49;26.47;;;13.43;;
18399;SDS011;9326;49.468;11.008;2024-01-11T17:27:17;24.60;;;14.43;;
18399;SDS011;9326;49.468;11.008;2024-01-11T17:29:47;25.30;;;15.10;;
18399;SDS011;9326;49.468;11.008;2024-01-11T17:32:14;29.23;;;15.60;;
18399;SDS011;9326;49.468;11.008;2024-01-11T17:34:41;27.97;;;16.17;;
18399;SDS011;9326;49.468;11.008;2024-01-11T17:37:14;47.23;;;25.43;;
18399;SDS011;9326;49.468;11.008;2024-01-11T17:39:45;26.87;;;15.27;;
18399;SDS011;9326;49.468;11.008;2024-01-11T17:42:14;28.07;;;15.10;;
18399;SDS011;9326;49.468;11.008;2024-01-11T17:44:41;29.33;;;15.47;;
18399;SDS011;9326;49.468;11.008;2024-01-11T17:47:09;25.77;;;14.57;;
18399;SDS011;9326;49.468;11.008;2024-01-11T17:49:37;25.63;;;15.00;;
18399;SDS011;9326;49.468;11.008;2024-01-11T17:52:07;30.67;;;16.17;;
18399;SDS011;9326;49.468;11.008;2024-01-11T17:54:34;25.87;;;16.03;;
18399;SDS011;9326;49.468;11.008;2024-01-11T17:57:04;25.93;;;14.70;;
18399;SDS011;9326;49.468;11.008;2024-01-11T17:59:32;28.67;;;16.57;;
18399;SDS011;9326;49.468;11.008;2024-01-11T18:02:00;31.00;;;17.07;;
18399;SDS011;9326;49.468;11.008;2024-01-11T18:04:27;27.70;;;16.63;;
18399;SDS011;9326;49.468;11.008;2024-01-11T18:06:55;32.47;;;17.13;;
18399;SDS011;9326;49.468;11.008;2024-01-11T18:09:22;33.77;;;17.20;;
18399;SDS011;9326;49.468;11.008;2024-01-11T18:11:49;27.47;;;15.97;;
18399;SDS011;9326;49.468;11.008;2024-01-11T18:14:16;26.40;;;15.90;;
18399;SDS011;9326;49.468;11.008;2024-01-11T18:16:46;29.07;;;16.07;;
18399;SDS011;9326;49.468;11.008;2024-01-11T18:19:14;27.63;;;15.97;;
18399;SDS011;9326;49.468;11.008;2024-01-11T18:21:41;29.50;;;15.87;;
18399;SDS011;9326;49.468;11.008;2024-01-11T18:24:09;28.37;;;16.47;;
18399;SDS011;9326;49.468;11.008;2024-01-11T18:26:50;26.77;;;15.37;;
18399;SDS011;9326;49.468;11.008;2024-01-11T18:29:18;33.23;;;17.77;;
18399;SDS011;9326;49.468;11.008;2024-01-11T18:31:48;31.37;;;16.93;;
18399;SDS011;9326;49.468;11.008;2024-01-11T18:34:15;31.13;;;17.53;;
18399;SDS011;9326;49.468;11.008;2024-01-11T18:36:43;33.93;;;20.13;;
18399;SDS011;9326;49.468;11.008;2024-01-11T18:39:11;41.87;;;23.37;;
18399;SDS011;9326;49.468;11.008;2024-01-11T18:41:38;39.70;;;23.40;;
18399;SDS011;9326;49.468;11.008;2024-01-11T18:44:05;46.00;;;26.37;;
18399;SDS011;9326;49.468;11.008;2024-01-11T18:46:36;41.60;;;25.13;;
18399;SDS011;9326;49.468;11.008;2024-01-11T18:49:06;36.17;;;19.97;;
18399;SDS011;9326;49.468;11.008;2024-01-11T18:51:37;35.30;;;21.47;;
18399;SDS011;9326;49.468;11.008;2024-01-11T18:54:05;35.57;;;20.53;;
18399;SDS011;9326;49.468;11.008;2024-01-11T18:56:32;34.83;;;19.63;;
18399;SDS011;9326;49.468;11.008;2024-01-11T18:59:00;33.83;;;20.17;;
18399;SDS011;9326;49.468;11.008;2024-01-11T19:01:27;34.83;;;18.83;;
18399;SDS011;9326;49.468;11.008;2024-01-11T19:03:55;38.43;;;21.23;;
18399;SDS011;9326;49.468;11.008;2024-01-11T19:06:23;41.33;;;25.90;;
18399;SDS011;9326;49.468;11.008;2024-01-11T19:08:52;35.43;;;20.43;;
18399;SDS011;9326;49.468;11.008;2024-01-11T19:11:20;38.93;;;21.47;;
18399;SDS011;9326;49.468;11.008;2024-01-11T19:13:47;30.37;;;16.77;;
18399;SDS011;9326;49.468;11.008;2024-01-11T19:16:15;31.93;;;21.30;;
18399;SDS011;9326;49.468;11.008;2024-01-11T19:18:43;37.30;;;19.33;;
18399;SDS011;9326;49.468;11.008;2024-01-11T19:21:10;31.30;;;17.03;;
18399;SDS011;9326;49.468;11.008;2024-01-11T19:23:40;33.83;;;18.47;;
18399;SDS011;9326;49.468;11.008;2024-01-11T19:26:09;35.13;;;19.33;;
18399;SDS011;9326;49.468;11.008;2024-01-11T19:28:36;38.20;;;22.37;;
18399;SDS011;9326;49.468;11.008;2024-01-11T19:31:06;43.20;;;28.73;;
18399;SDS011;9326;49.468;11.008;2024-01-11T19:33:34;44.50;;;25.70;;
18399;SDS011;9326;49.468;11.008;2024-01-11T19:36:03;40.93;;;24.57;;
18399;SDS011;9326;49.468;11.008;2024-01-11T19:38:30;38.47;;;21.17;;
18399;SDS011;9326;49.468;11.008;2024-01-11T19:41:01;37.83;;;21.40;;
18399;SDS011;9326;49.468;11.008;2024-01-11T19:43:28;35.50;;;21.83;;
18399;SDS011;9326;49.468;11.008;2024-01-11T19:45:56;45.73;;;29.77;;
18399;SDS011;9326;49.468;11.008;2024-01-11T19:48:24;40.43;;;25.20;;
18399;SDS011;9326;49.468;11.008;2024-01-11T19:50:51;35.90;;;24.30;;
18399;SDS011;9326;49.468;11.008;2024-01-11T19:53:18;38.43;;;21.73;;
18399;SDS011;9326;49.468;11.008;2024-01-11T19:55:47;33.87;;;19.47;;
18399;SDS011;9326;49.468;11.008;2024-01-11T19:58:16;35.10;;;19.93;;
18399;SDS011;9326;49.468;11.008;2024-01-11T20:00:43;33.93;;;18.87;;
18399;SDS011;9326;49.468;11.008;2024-01-11T20:03:13;30.57;;;17.73;;
18399;SDS011;9326;49.468;11.008;2024-01-11T20:05:42;32.40;;;18.37;;
18399;SDS011;9326;49.468;11.008;2024-01-11T20:08:09;31.03;;;18.20;;
18399;SDS011;9326;49.468;11.008;2024-01-11T20:10:39;33.57;;;19.27;;
18399;SDS011;9326;49.468;11.008;2024-01-11T20:13:07;35.50;;;22.23;;
18399;SDS011;9326;49.468;11.008;2024-01-11T20:15:37;39.60;;;25.10;;
18399;SDS011;9326;49.468;11.008;2024-01-11T20:18:04;37.67;;;24.30;;
18399;SDS011;9326;49.468;11.008;2024-01-11T20:20:33;35.73;;;23.07;;
18399;SDS011;9326;49.468;11.008;2024-01-11T20:23:05;35.10;;;23.63;;
18399;SDS011;9326;49.468;11.008;2024-01-11T20:25:32;35.20;;;24.20;;
18399;SDS011;9326;49.468;11.008;2024-01-11T20:28:00;37.17;;;25.87;;
18399;SDS011;9326;49.468;11.008;2024-01-11T20:30:28;35.90;;;24.20;;
18399;SDS011;9326;49.468;11.008;2024-01-11T20:33:00;35.27;;;23.93;;
18399;SDS011;9326;49.468;11.008;2024-01-11T20:35:28;36.23;;;23.13;;
18399;SDS011;9326;49.468;11.008;2024-01-11T20:37:55;37.87;;;24.13;;
18399;SDS011;9326;49.468;11.008;2024-01-11T20:40:37;35.33;;;23.40;;
18399;SDS011;9326;49.468;11.008;2024-01-11T20:43:04;37.50;;;23.93;;
18399;SDS011;9326;49.468;11.008;2024-01-11T20:45:46;35.73;;;23.67;;
18399;SDS011;9326;49.468;11.008;2024-01-11T20:48:15;37.17;;;24.80;;
18399;SDS011;9326;49.468;11.008;2024-01-11T20:50:42;45.40;;;27.77;;
18399;SDS011;9326;49.468;11.008;2024-01-11T20:53:39;42.07;;;26.77;;
18399;SDS011;9326;49.468;11.008;2024-01-11T20:56:06;40.47;;;26.20;;